createdAt,value
2023-03-30T00:00:59.133Z,8.65
2023-03-30T00:03:27.725Z,8.48
2023-03-30T00:06:01.160Z,8.68
2023-03-30T00:08:28.871Z,8.13
2023-03-30T00:11:11.877Z,8.38
2023-03-30T00:13:40.146Z,8.95
2023-03-30T00:16:10.190Z,8.80
2023-03-30T00:18:39.387Z,8.70
2023-03-30T00:21:10.041Z,8.95
2023-03-30T00:23:38.867Z,7.80
2023-03-30T00:26:08.104Z,8.60
2023-03-30T00:28:35.502Z,8.00
2023-03-30T00:31:03.119Z,7.57
2023-03-30T00:33:44.769Z,8.23
2023-03-30T00:36:15.749Z,7.97
2023-03-30T00:38:44.106Z,8.43
2023-03-30T00:41:12.310Z,8.02
2023-03-30T00:44:01.091Z,8.77
2023-03-30T00:46:31.289Z,8.50
2023-03-30T00:49:04.114Z,8.73
2023-03-30T00:51:35.906Z,7.90
2023-03-30T00:54:16.111Z,8.70
2023-03-30T00:56:44.024Z,8.10
2023-03-30T00:59:11.852Z,8.10
2023-03-30T01:01:40.631Z,8.75
2023-03-30T01:04:10.101Z,7.90
2023-03-30T01:06:40.179Z,7.80
2023-03-30T01:09:08.585Z,7.68
2023-03-30T01:11:36.524Z,8.07
2023-03-30T01:14:06.482Z,7.37
2023-03-30T01:16:55.902Z,8.57
2023-03-30T01:19:49.420Z,8.20
2023-03-30T01:22:37.036Z,8.85
2023-03-30T01:25:38.717Z,9.75
2023-03-30T01:28:09.803Z,8.52
2023-03-30T01:30:53.513Z,9.18
2023-03-30T01:33:39.199Z,9.50
2023-03-30T01:36:26.866Z,9.52
2023-03-30T01:39:23.651Z,8.65
2023-03-30T01:41:55.542Z,8.48
2023-03-30T01:45:01.849Z,9.48
2023-03-30T01:47:51.587Z,9.33
2023-03-30T01:50:26.643Z,9.68
2023-03-30T01:53:23.588Z,9.20
2023-03-30T01:55:56.210Z,8.77
2023-03-30T01:58:34.583Z,9.05
2023-03-30T02:01:03.376Z,9.38
2023-03-30T02:03:33.220Z,9.73
2023-03-30T02:06:11.904Z,9.50
2023-03-30T02:08:40.330Z,9.68
2023-03-30T02:11:07.983Z,9.73
2023-03-30T02:13:37.033Z,9.77
2023-03-30T02:16:15.697Z,10.07
2023-03-30T02:18:45.094Z,9.55
2023-03-30T02:21:13.105Z,10.95
2023-03-30T02:23:42.832Z,9.68
2023-03-30T02:26:11.297Z,10.10
2023-03-30T02:28:39.204Z,10.05
2023-03-30T02:31:13.202Z,9.20
2023-03-30T02:33:56.814Z,8.30
2023-03-30T02:37:15.357Z,8.30
2023-03-30T02:40:13.370Z,8.90
2023-03-30T02:42:49.194Z,9.00
2023-03-30T02:48:03.271Z,8.40
2023-03-30T02:50:35.129Z,8.32
2023-03-30T02:53:24.841Z,8.13
2023-03-30T02:56:00.590Z,8.70
2023-03-30T02:58:42.989Z,7.18
2023-03-30T03:01:36.392Z,7.90
2023-03-30T03:04:05.425Z,7.93
2023-03-30T03:06:34.371Z,7.57
2023-03-30T03:09:01.803Z,7.78
2023-03-30T03:11:29.650Z,8.40
2023-03-30T03:13:57.330Z,9.45
2023-03-30T03:16:26.727Z,9.48
2023-03-30T03:18:55.243Z,8.55
2023-03-30T03:21:23.044Z,9.05
2023-03-30T03:23:51.128Z,8.98
2023-03-30T03:26:20.017Z,8.07
2023-03-30T03:28:47.734Z,8.05
2023-03-30T03:31:16.240Z,7.65
2023-03-30T03:33:45.301Z,7.97
2023-03-30T03:36:13.435Z,7.60
2023-03-30T03:38:41.729Z,7.20
2023-03-30T03:41:09.453Z,6.65
2023-03-30T03:43:38.053Z,8.07
2023-03-30T03:46:05.751Z,7.20
2023-03-30T03:48:33.333Z,7.72
2023-03-30T03:51:01.435Z,7.90
2023-03-30T03:53:31.210Z,8.02
2023-03-30T03:55:59.085Z,7.47
2023-03-30T03:58:27.570Z,7.40
2023-03-30T04:00:59.364Z,7.40
2023-03-30T04:03:27.505Z,7.68
2023-03-30T04:05:57.099Z,8.13
2023-03-30T04:08:25.764Z,7.65
2023-03-30T04:10:53.996Z,7.65
2023-03-30T04:13:21.961Z,7.53
2023-03-30T04:15:49.703Z,8.45
2023-03-30T04:18:17.891Z,8.02
2023-03-30T04:20:46.325Z,8.13
2023-03-30T04:23:16.488Z,7.95
2023-03-30T04:25:45.760Z,8.90
2023-03-30T04:28:14.547Z,8.60
2023-03-30T04:30:45.701Z,8.80
2023-03-30T04:33:15.593Z,9.15
2023-03-30T04:35:43.851Z,9.20
2023-03-30T04:38:12.324Z,9.30
2023-03-30T04:40:40.483Z,9.32
2023-03-30T04:43:09.881Z,9.70
2023-03-30T04:45:37.921Z,9.10
2023-03-30T04:48:05.933Z,9.63
2023-03-30T04:50:36.517Z,9.50
2023-03-30T04:53:06.520Z,9.80
2023-03-30T04:55:36.665Z,9.82
2023-03-30T04:58:04.159Z,10.55
2023-03-30T05:00:33.528Z,10.63
2023-03-30T05:03:01.785Z,10.40
2023-03-30T05:05:29.524Z,10.57
2023-03-30T05:07:58.730Z,9.38
2023-03-30T05:10:26.524Z,10.13
2023-03-30T05:12:55.765Z,9.70
2023-03-30T05:15:24.765Z,9.73
2023-03-30T05:17:52.419Z,10.18
2023-03-30T05:20:20.314Z,10.73
2023-03-30T05:22:50.798Z,10.38
2023-03-30T05:25:18.491Z,11.68
2023-03-30T05:27:46.206Z,10.70
2023-03-30T05:30:14.990Z,11.30
2023-03-30T05:32:42.978Z,9.45
2023-03-30T05:35:12.079Z,9.73
2023-03-30T05:37:40.675Z,9.88
2023-03-30T05:40:12.597Z,12.07
2023-03-30T05:42:40.563Z,10.52
2023-03-30T05:45:09.433Z,9.95
2023-03-30T05:47:38.432Z,11.12
2023-03-30T05:50:08.110Z,10.52
2023-03-30T05:52:38.474Z,8.63
2023-03-30T05:55:06.946Z,9.85
2023-03-30T05:57:36.729Z,9.43
2023-03-30T06:00:07.135Z,9.05
2023-03-30T06:02:40.350Z,9.15
2023-03-30T06:05:09.797Z,9.18
2023-03-30T06:07:37.580Z,9.32
2023-03-30T06:10:08.249Z,9.80
2023-03-30T06:12:36.083Z,10.27
2023-03-30T06:15:03.918Z,8.55
2023-03-30T06:17:31.862Z,10.13
2023-03-30T06:20:08.430Z,9.30
2023-03-30T06:22:36.342Z,9.95
2023-03-30T06:25:04.685Z,9.93
2023-03-30T06:27:33.021Z,10.13
2023-03-30T06:30:00.618Z,9.85
2023-03-30T06:32:28.375Z,11.02
2023-03-30T06:34:57.805Z,10.27
2023-03-30T06:37:25.597Z,10.48
2023-03-30T06:39:53.618Z,12.05
2023-03-30T06:42:21.137Z,11.52
2023-03-30T06:44:50.627Z,10.90
2023-03-30T06:47:20.036Z,11.00
2023-03-30T06:49:48.430Z,11.10
2023-03-30T06:52:17.454Z,10.93
2023-03-30T06:54:45.995Z,12.18
2023-03-30T06:57:13.516Z,11.12
2023-03-30T06:59:41.342Z,13.20
2023-03-30T07:02:15.287Z,12.32
2023-03-30T07:04:46.929Z,11.93
2023-03-30T07:07:16.332Z,11.35
2023-03-30T07:09:44.123Z,11.30
2023-03-30T07:12:11.910Z,12.35
2023-03-30T07:14:40.529Z,10.70
2023-03-30T07:17:08.615Z,11.15
2023-03-30T07:19:36.846Z,11.35
2023-03-30T07:22:04.709Z,11.90
2023-03-30T07:24:33.751Z,11.57
2023-03-30T07:27:02.795Z,10.77
2023-03-30T07:29:30.827Z,11.48
2023-03-30T08:28:05.650Z,12.90
2023-03-30T08:30:33.416Z,13.57
2023-03-30T08:33:01.194Z,11.93
2023-03-30T08:35:28.997Z,12.55
2023-03-30T08:37:56.965Z,12.70
2023-03-30T08:40:24.454Z,13.52
2023-03-30T08:43:00.874Z,12.02
2023-03-30T08:45:36.925Z,14.00
2023-03-30T08:48:12.313Z,14.23
2023-03-30T08:50:40.024Z,12.30
2023-03-30T08:53:08.062Z,13.38
2023-03-30T08:55:51.862Z,12.95
2023-03-30T08:58:40.012Z,14.20
2023-03-30T09:01:23.629Z,14.15
2023-03-30T09:04:14.146Z,14.27
2023-03-30T09:07:05.440Z,14.65
2023-03-30T09:09:39.016Z,15.48
2023-03-30T09:12:12.367Z,15.18
2023-03-30T09:14:46.641Z,14.35
2023-03-30T09:17:28.687Z,13.23
2023-03-30T09:20:00.926Z,13.88
2023-03-30T09:22:38.121Z,13.82
2023-03-30T09:25:21.580Z,13.62
2023-03-30T09:27:56.320Z,13.93
2023-03-30T09:30:47.625Z,14.07
2023-03-30T09:33:14.941Z,13.93
2023-03-30T09:35:44.784Z,12.88
2023-03-30T09:38:13.449Z,14.93
2023-03-30T09:41:07.581Z,13.68
2023-03-30T09:43:44.285Z,13.77
2023-03-30T09:46:13.826Z,13.73
2023-03-30T09:48:51.436Z,14.55
2023-03-30T09:51:21.493Z,13.50
2023-03-30T09:53:52.102Z,14.13
2023-03-30T09:56:22.431Z,13.52
2023-03-30T09:58:50.512Z,13.60
2023-03-30T10:01:20.182Z,13.23
2023-03-30T10:04:23.736Z,13.93
2023-03-30T10:06:51.471Z,14.23
2023-03-30T10:09:22.440Z,14.30
2023-03-30T10:11:51.949Z,13.82
2023-03-30T10:14:29.720Z,14.68
2023-03-30T10:16:58.957Z,15.20
2023-03-30T10:19:26.962Z,13.57
2023-03-30T10:21:58.920Z,13.75
2023-03-30T10:24:29.562Z,13.35
2023-03-30T10:27:17.163Z,13.50
2023-03-30T10:29:46.803Z,13.23
2023-03-30T10:32:20.013Z,12.37
2023-03-30T10:34:52.874Z,13.05
2023-03-30T10:37:41.219Z,13.15
2023-03-30T10:40:17.532Z,12.52
2023-03-30T10:42:47.228Z,13.18
2023-03-30T10:45:19.355Z,12.95
2023-03-30T10:48:09.051Z,12.15
2023-03-30T10:50:47.263Z,11.50
2023-03-30T10:53:33.041Z,12.30
2023-03-30T10:56:13.931Z,12.70
2023-03-30T10:59:00.656Z,12.68
2023-03-30T11:01:42.699Z,11.45
2023-03-30T11:04:47.343Z,10.05
2023-03-30T11:07:38.718Z,9.45
2023-03-30T11:10:14.736Z,10.15
2023-03-30T11:12:46.948Z,9.45
2023-03-30T11:15:41.531Z,9.75
2023-03-30T11:18:09.305Z,8.95
2023-03-30T11:20:47.847Z,10.00
2023-03-30T11:23:39.051Z,9.85
2023-03-30T11:26:18.078Z,9.40
2023-03-30T11:29:22.880Z,8.57
2023-03-30T11:32:15.504Z,8.40
2023-03-30T11:34:55.728Z,9.43
2023-03-30T11:37:32.437Z,8.75
2023-03-30T11:40:11.873Z,7.87
2023-03-30T11:42:39.301Z,7.80
2023-03-30T11:45:18.715Z,8.80
2023-03-30T11:48:04.409Z,7.45
2023-03-30T11:50:38.981Z,8.10
2023-03-30T11:53:33.400Z,8.05
2023-03-30T11:56:14.214Z,7.53
2023-03-30T11:58:47.052Z,8.77
2023-03-30T12:01:42.122Z,7.43
2023-03-30T12:04:11.036Z,7.18
2023-03-30T12:06:40.936Z,7.53
2023-03-30T12:09:25.723Z,7.62
2023-03-30T12:12:11.957Z,7.45
2023-03-30T12:15:04.490Z,7.25
2023-03-30T12:18:00.054Z,6.82
2023-03-30T12:20:30.544Z,7.78
2023-03-30T12:23:19.813Z,7.75
2023-03-30T12:25:47.104Z,7.05
2023-03-30T12:28:15.743Z,7.05
2023-03-30T12:30:57.585Z,7.28
2023-03-30T12:33:50.107Z,7.40
2023-03-30T12:36:38.156Z,7.22
2023-03-30T12:39:12.920Z,7.20
2023-03-30T12:41:50.507Z,7.12
2023-03-30T12:44:55.421Z,7.62
2023-03-30T12:47:33.554Z,7.70
2023-03-30T12:50:13.470Z,6.80
2023-03-30T12:53:13.443Z,7.35
2023-03-30T12:55:52.237Z,7.97
2023-03-30T12:58:39.414Z,7.18
2023-03-30T13:01:38.248Z,6.45
2023-03-30T13:04:09.354Z,7.28
2023-03-30T13:06:40.574Z,6.90
2023-03-30T13:09:08.056Z,6.53
2023-03-30T13:11:53.953Z,6.65
2023-03-30T13:14:45.279Z,7.18
2023-03-30T13:17:19.714Z,7.15
2023-03-30T13:23:05.746Z,7.12
2023-03-30T13:26:00.556Z,7.10
2023-03-30T13:28:55.006Z,6.43
2023-03-30T13:31:55.048Z,6.30
2023-03-30T13:34:48.926Z,6.18
2023-03-30T13:37:44.796Z,6.65
2023-03-30T13:40:27.344Z,6.15
2023-03-30T13:43:29.354Z,5.95
2023-03-30T13:46:13.861Z,7.03
2023-03-30T13:48:55.213Z,6.90
2023-03-30T13:51:25.750Z,6.75
2023-03-30T13:53:58.085Z,7.15
2023-03-30T13:56:27.344Z,7.85
2023-03-30T13:59:33.659Z,6.97
2023-03-30T14:02:01.952Z,7.03
2023-03-30T14:04:34.610Z,7.20
2023-03-30T14:07:16.537Z,7.30
2023-03-30T14:10:05.399Z,7.70
2023-03-30T14:12:34.110Z,7.93
2023-03-30T14:15:02.100Z,7.62
2023-03-30T14:17:29.614Z,7.30
2023-03-30T14:20:16.932Z,6.82
2023-03-30T14:22:46.129Z,6.95
2023-03-30T14:25:25.661Z,6.75
2023-03-30T14:27:53.981Z,6.90
2023-03-30T14:30:29.411Z,7.30
2023-03-30T14:33:11.465Z,7.35
2023-03-30T14:35:45.806Z,7.25
2023-03-30T14:38:17.568Z,7.30
2023-03-30T14:40:45.655Z,6.60
2023-03-30T14:43:15.153Z,7.15
2023-03-30T14:45:43.035Z,8.13
2023-03-30T14:48:19.581Z,6.62
2023-03-30T14:50:47.289Z,6.93
2023-03-30T14:53:14.929Z,7.25
2023-03-30T14:55:42.881Z,7.97
2023-03-30T14:58:13.855Z,9.60
2023-03-30T15:00:42.017Z,9.85
2023-03-30T15:03:19.682Z,9.48
2023-03-30T15:05:54.066Z,9.63
2023-03-30T15:08:31.829Z,10.20
2023-03-30T15:11:23.226Z,9.52
2023-03-30T15:13:53.172Z,10.43
2023-03-30T15:16:28.716Z,9.70
2023-03-30T15:21:29.207Z,9.60
2023-03-30T15:23:58.636Z,9.57
2023-03-30T15:26:27.143Z,10.52
2023-03-30T15:28:57.323Z,9.70
2023-03-30T15:31:27.556Z,8.90
2023-03-30T15:33:57.706Z,9.32
2023-03-30T15:36:35.425Z,9.05
2023-03-30T15:39:17.591Z,9.48
2023-03-30T15:41:50.484Z,11.35
2023-03-30T15:44:20.013Z,10.70
2023-03-30T15:46:49.830Z,9.88
2023-03-30T15:49:23.391Z,9.25
2023-03-30T15:51:52.770Z,8.68
2023-03-30T15:54:24.791Z,11.15
2023-03-30T15:57:03.983Z,9.60
2023-03-30T15:59:35.220Z,10.80
2023-03-30T16:02:15.395Z,12.27
2023-03-30T16:05:00.777Z,12.25
2023-03-30T16:07:29.412Z,11.65
2023-03-30T16:09:57.129Z,11.80
2023-03-30T16:12:27.135Z,14.32
2023-03-30T16:14:55.155Z,11.20
2023-03-30T16:17:23.036Z,16.37
2023-03-30T16:19:50.534Z,19.95
2023-03-30T16:22:32.039Z,17.55
2023-03-30T16:25:15.902Z,11.93
2023-03-30T16:28:14.106Z,12.25
2023-03-30T16:30:47.340Z,11.98
2023-03-30T16:33:15.187Z,11.32
2023-03-30T16:35:42.715Z,11.23
2023-03-30T16:38:14.378Z,11.88
2023-03-30T16:40:44.054Z,12.02
2023-03-30T16:43:12.720Z,12.32
2023-03-30T16:45:40.315Z,13.18
2023-03-30T16:48:08.241Z,12.63
2023-03-30T16:50:46.206Z,14.52
2023-03-30T16:53:14.050Z,14.38
2023-03-30T16:55:41.838Z,13.18
2023-03-30T16:58:13.797Z,13.05
2023-03-30T17:00:44.985Z,13.05
2023-03-30T17:03:13.096Z,12.43
2023-03-30T17:05:40.902Z,11.70
2023-03-30T17:08:18.951Z,12.70
2023-03-30T17:10:47.489Z,13.15
2023-03-30T17:13:15.819Z,13.15
2023-03-30T17:15:43.990Z,10.90
2023-03-30T17:18:17.750Z,11.10
2023-03-30T17:20:54.568Z,10.63
2023-03-30T17:23:28.747Z,12.07
2023-03-30T17:25:59.041Z,11.93
2023-03-30T17:28:32.654Z,12.60
2023-03-30T17:31:03.549Z,14.10
2023-03-30T17:33:36.212Z,12.75
2023-03-30T17:36:26.456Z,13.05
2023-03-30T17:38:54.822Z,13.38
2023-03-30T17:41:24.519Z,12.65
2023-03-30T17:43:52.900Z,13.48
2023-03-30T17:46:21.576Z,14.00
2023-03-30T17:48:52.061Z,11.63
2023-03-30T17:51:23.592Z,12.13
2023-03-30T17:53:51.851Z,10.93
2023-03-30T17:56:20.034Z,10.57
2023-03-30T17:58:52.834Z,10.52
2023-03-30T18:01:24.563Z,12.55
2023-03-30T18:03:53.940Z,13.10
2023-03-30T18:06:22.541Z,12.82
2023-03-30T18:08:50.638Z,13.00
2023-03-30T18:11:19.735Z,12.48
2023-03-30T18:13:48.359Z,12.55
2023-03-30T18:16:18.388Z,11.68
2023-03-30T18:18:57.234Z,11.55
2023-03-30T18:25:45.070Z,12.57
2023-03-30T18:28:22.797Z,12.77
2023-03-30T18:30:53.725Z,12.57
2023-03-30T18:33:22.767Z,13.25
2023-03-30T18:35:54.144Z,12.63
2023-03-30T18:38:23.376Z,12.43
2023-03-30T18:40:58.552Z,13.65
2023-03-30T18:46:01.778Z,14.27
2023-03-30T18:48:31.440Z,15.68
2023-03-30T18:51:01.500Z,15.25
2023-03-30T18:53:30.449Z,15.73
2023-03-30T18:56:01.056Z,15.63
2023-03-30T18:58:34.240Z,14.68
2023-03-30T19:01:02.990Z,15.57
2023-03-30T19:03:33.948Z,15.68
2023-03-30T19:06:02.621Z,14.52
2023-03-30T19:08:31.453Z,12.68
2023-03-30T19:11:01.370Z,13.60
2023-03-30T19:13:30.174Z,11.48
2023-03-30T19:15:59.132Z,11.88
2023-03-30T19:18:28.273Z,12.48
2023-03-30T19:20:57.562Z,11.77
2023-03-30T19:23:27.024Z,11.73
2023-03-30T19:25:55.797Z,11.60
2023-03-30T19:28:25.310Z,11.73
2023-03-30T19:30:54.327Z,11.85
2023-03-30T19:33:24.926Z,12.18
2023-03-30T19:35:53.653Z,12.32
2023-03-30T19:38:21.662Z,12.15
2023-03-30T19:40:51.939Z,14.27
2023-03-30T19:43:22.126Z,12.25
2023-03-30T19:45:52.460Z,12.25
2023-03-30T19:48:20.628Z,12.05
2023-03-30T19:50:49.939Z,12.48
2023-03-30T19:53:18.565Z,14.07
2023-03-30T19:55:46.446Z,12.95
2023-03-30T19:58:16.590Z,15.25
2023-03-30T20:00:50.000Z,14.05
2023-03-30T20:03:18.737Z,14.70
2023-03-30T20:05:51.835Z,15.80
2023-03-30T20:08:24.684Z,16.80
2023-03-30T20:10:53.608Z,14.43
2023-03-30T20:13:24.483Z,14.70
2023-03-30T20:15:56.101Z,15.05
2023-03-30T20:18:24.665Z,14.87
2023-03-30T20:20:52.235Z,15.00
2023-03-30T20:23:20.104Z,14.35
2023-03-30T20:25:49.573Z,13.88
2023-03-30T20:28:17.853Z,13.70
2023-03-30T20:30:45.561Z,15.20
2023-03-30T20:33:13.410Z,14.98
2023-03-30T20:35:41.778Z,15.45
2023-03-30T20:38:09.853Z,15.13
2023-03-30T20:40:37.590Z,14.40
2023-03-30T20:43:10.160Z,13.80
2023-03-30T20:45:46.421Z,12.45
2023-03-30T20:48:26.989Z,13.98
2023-03-30T20:50:55.920Z,13.30
2023-03-30T20:53:23.669Z,14.25
2023-03-30T20:55:51.320Z,13.82
2023-03-30T20:58:19.113Z,13.45
2023-03-30T21:00:48.861Z,13.55
2023-03-30T21:03:16.302Z,13.80
2023-03-30T21:05:43.987Z,13.27
2023-03-30T21:08:11.374Z,12.15
2023-03-30T21:10:42.899Z,13.23
2023-03-30T21:13:11.008Z,13.05
2023-03-30T21:15:38.395Z,12.77
2023-03-30T21:18:06.016Z,13.77
2023-03-30T21:20:33.752Z,14.05
2023-03-30T21:23:01.118Z,13.80
2023-03-30T21:25:29.122Z,13.55
2023-03-30T21:27:56.781Z,13.05
2023-03-30T21:30:24.130Z,11.98
2023-03-30T21:32:51.546Z,13.07
2023-03-30T21:35:19.211Z,11.98
2023-03-30T21:37:46.600Z,11.10
2023-03-30T21:40:15.036Z,11.73
2023-03-30T21:42:42.736Z,11.32
2023-03-30T21:45:12.045Z,11.25
2023-03-30T21:47:39.803Z,10.10
2023-03-30T21:50:07.869Z,9.50
2023-03-30T21:52:35.546Z,9.82
2023-03-30T21:55:03.325Z,8.52
2023-03-30T21:57:31.102Z,8.25
2023-03-30T21:59:58.502Z,9.65
2023-03-30T22:02:26.046Z,10.90
2023-03-30T22:04:53.775Z,12.43
2023-03-30T22:07:21.406Z,11.20
2023-03-30T22:09:48.796Z,10.27
2023-03-30T22:12:17.608Z,9.82
2023-03-30T22:14:45.030Z,10.07
2023-03-30T22:17:12.447Z,9.88
2023-03-30T22:19:43.851Z,10.98
2023-03-30T22:22:11.326Z,10.27
2023-03-30T22:24:38.745Z,9.45
2023-03-30T22:27:07.125Z,10.60
2023-03-30T22:29:34.512Z,9.43
2023-03-30T22:32:02.119Z,8.85
2023-03-30T22:34:31.649Z,9.27
2023-03-30T22:36:59.116Z,10.00
2023-03-30T22:39:26.512Z,9.85
2023-03-30T22:41:54.190Z,8.73
2023-03-30T22:44:21.551Z,9.18
2023-03-30T22:46:48.918Z,9.88
2023-03-30T22:49:17.707Z,8.68
2023-03-30T22:51:52.630Z,8.88
2023-03-30T22:54:20.909Z,8.38
2023-03-30T22:56:48.806Z,8.52
2023-03-30T22:59:16.522Z,8.07
2023-03-30T23:01:44.271Z,7.90
2023-03-30T23:04:12.107Z,7.47
2023-03-30T23:06:39.832Z,7.82
2023-03-30T23:09:07.957Z,7.25
2023-03-30T23:11:35.607Z,6.82
2023-03-30T23:14:05.987Z,7.70
2023-03-30T23:16:36.001Z,7.53
2023-03-30T23:19:04.612Z,7.57
2023-03-30T23:21:35.784Z,6.97
2023-03-30T23:24:05.473Z,7.90
2023-03-30T23:26:33.030Z,8.77
2023-03-30T23:29:00.462Z,7.82
2023-03-30T23:31:28.254Z,8.43
2023-03-30T23:33:57.677Z,8.13
2023-03-30T23:36:27.095Z,7.32
2023-03-30T23:38:54.817Z,7.00
2023-03-30T23:41:22.318Z,8.10
2023-03-30T23:43:49.798Z,6.75
2023-03-30T23:46:17.827Z,6.80
2023-03-30T23:48:45.551Z,7.15
2023-03-30T23:51:13.056Z,6.55
2023-03-30T23:53:41.718Z,6.68
2023-03-30T23:56:13.100Z,7.62
2023-03-30T23:58:41.376Z,6.07
